Latest Weather Observations for Christmas Creek

IDW60801

Issued at 7:32 pm WST Monday 22 December 2014 (issued every 30 minutes, with the page automatically refreshed every 10 minutes)

About weather observations | Map of weather stations | Latest weather observations for WA | Other Formats
Station Details ID: 505049 Name: CHRISTMAS CREEK Lat: -22.36 Lon: 119.65 Height: 437.21 m
Data from the previous 72 hours. | See also: Recent months for locations in Western Australia
Date/Time
WST
Temp
°C
App
Temp
°C
Dew
Point
Rel
Hum
%
Delta-T
°C
Wind Press
QNH
hPa
Press
MSL
hPa
Rain
since 9 am
mm
Dir
 
Spd
km/h
Gust
km/h
Spd
kts
Gust
kts
22/07:30pm 28.3 28.8 16.5 48 7.5 S 9 13 5 7 1010.0 1006.4 0.2
22/07:00pm 27.9 27.4 16.9 51 7.0 ESE 15 22 8 12 1008.7 1005.1 0.2
22/06:30pm 28.0 27.3 17.4 52 6.8 SSE 17 22 9 12 1008.6 1005.0 0.2
22/06:00pm 27.3 26.6 17.3 54 6.4 SE 17 32 9 17 1008.7 1005.1 0.2
22/05:30pm 26.8 26.3 19.0 62 5.1 S 20 43 11 23 1008.1 1004.6 0.2
22/05:00pm 27.9 24.4 18.0 55 6.4 SSW 33 57 18 31 1007.4 1003.8 0.0
22/04:43pm 31.9 27.8 14.9 35 10.6 WSW 30 63 16 34 1007.7 1004.1 0.0
22/04:41pm 35.8 32.7 14.6 28 13.4 W 24 61 13 33 1007.4 1003.8 0.0
22/04:30pm 38.0 35.6 13.8 23 15.2 NW 19 30 10 16 1005.9 1002.3 0.0
22/04:00pm 39.3 36.8 14.0 22 16.1 WNW 20 32 11 17 1005.9 1002.3 0.0
22/03:30pm 38.1 36.5 13.8 23 15.3 NW 15 30 8 16 1006.3 1002.7 0.0
22/03:00pm 38.3 35.8 13.5 23 15.6 N 19 33 10 18 1006.5 1002.9 0.0
22/02:30pm 38.3 36.3 14.9 25 15.0 N 19 28 10 15 1007.0 1003.4 0.0
22/02:00pm 37.6 35.6 15.5 27 14.2 NNE 20 32 11 17 1007.7 1004.1 0.0
22/01:30pm 37.6 36.7 14.9 26 14.5 WNW 13 26 7 14 1008.2 1004.7 0.0
22/01:00pm 37.2 37.9 15.6 27 13.9 NNW 6 15 3 8 1008.8 1005.2 0.0
22/12:30pm 37.4 35.7 15.7 27 14.0 NW 19 32 10 17 1009.2 1005.6 0.0
22/12:00pm 36.0 35.3 16.4 31 12.7 N 15 26 8 14 1009.6 1006.0 0.0
22/11:30am 36.1 36.0 17.0 32 12.5 NW 13 30 7 16 1010.1 1006.5 0.0
22/11:00am 34.7 34.6 16.9 34 11.6 N 13 39 7 21 1010.6 1007.1 0.0
22/10:30am 34.5 34.4 16.9 35 11.4 N 13 24 7 13 1010.7 1007.2 0.0
22/10:00am 34.2 33.9 17.3 36 11.0 NNE 15 24 8 13 1011.0 1007.4 0.0
22/09:30am 32.6 31.4 17.1 39 10.0 N 19 33 10 18 1011.2 1007.6 0.0
22/09:00am 32.2 31.7 17.7 42 9.5 N 17 28 9 15 1011.2 1007.6 0.0
22/08:30am 31.1 31.0 18.7 47 8.2 N 17 26 9 14 1011.2 1007.6 0.0
22/08:00am 29.8 29.2 18.9 52 7.2 N 20 30 11 16 1011.2 1007.6 0.0
22/07:30am 29.5 28.5 18.8 52 7.0 N 22 32 12 17 1011.1 1007.5 0.0
22/07:00am 28.6 26.8 18.7 55 6.5 N 26 33 14 18 1010.5 1007.0 0.0
22/06:30am 27.9 27.2 18.6 57 6.1 N 20 28 11 15 1010.2 1006.7 0.0
22/06:00am 27.5 26.9 18.8 59 5.7 N 20 30 11 16 1009.8 1006.2 0.0
22/05:30am 26.7 27.1 19.9 66 4.5 N 17 22 9 12 1009.3 1005.7 0.0
22/05:00am 26.8 27.9 19.6 64 4.8 N 13 20 7 11 1009.2 1005.6 0.0
22/04:30am 27.1 28.0 19.2 62 5.2 N 13 19 7 10 1009.1 1005.5 0.0
22/04:00am 27.6 27.2 18.9 59 5.7 N 19 24 10 13 1008.6 1005.0 0.0
22/03:30am 28.1 27.9 18.6 56 6.2 N 17 24 9 13 1008.6 1005.0 0.0
22/03:00am 28.4 28.3 17.8 52 6.9 NNE 15 20 8 11 1008.2 1004.7 0.0
22/02:30am 28.8 28.8 17.2 49 7.4 NNE 13 17 7 9 1008.5 1004.9 0.0
22/02:00am 28.9 28.7 16.8 48 7.7 NNE 13 20 7 11 1008.5 1004.9 0.0
22/01:30am 29.2 29.0 16.6 46 8.0 NE 13 24 7 13 1008.5 1004.9 0.0
22/01:00am 28.9 29.3 17.2 49 7.5 NE 11 15 6 8 1008.3 1004.8 0.0
22/12:30am 28.9 30.2 17.1 49 7.5 WNW 6 9 3 5 1008.1 1004.6 0.0
22/12:00am 29.0 30.5 16.6 47 7.9 SE 4 7 2 4 1008.2 1004.7 0.0
 
Date/Time
WST
Temp
°C
App
Temp
°C
Dew
Point
Rel
Hum
%
Delta-T
°C
Wind Press
QNH
hPa
Press
MSL
hPa
Rain
since 9 am
mm
Dir
 
Spd
km/h
Gust
km/h
Spd
kts
Gust
kts
21/11:30pm 28.5 28.3 16.8 49 7.4 SSE 13 24 7 13 1008.3 1004.8 0.0
21/11:00pm 30.7 29.5 15.0 38 9.8 SE 15 24 8 13 1007.9 1004.3 0.0
21/10:30pm 30.7 28.5 14.8 38 9.9 NW 20 28 11 15 1007.3 1003.7 0.0
21/10:00pm 30.8 27.0 14.8 37 10.0 NW 28 35 15 19 1007.9 1004.3 0.0
21/09:30pm 31.0 28.1 15.1 38 9.9 WNW 24 35 13 19 1009.1 1005.5 0.0
21/09:00pm 31.0 28.1 15.1 38 10.0 WNW 24 35 13 19 1009.2 1005.6 0.0
21/08:30pm 31.0 31.5 16.5 41 9.3 WNW 9 15 5 8 1009.2 1005.6 0.0
21/08:00pm 30.1 30.9 17.2 46 8.3 W 9 15 5 8 1008.7 1005.1 0.0
21/07:30pm 30.2 30.3 17.5 46 8.2 NNE 13 17 7 9 1007.5 1003.9 0.0
21/07:00pm 30.3 29.8 17.0 44 8.6 SE 15 20 8 11 1007.3 1003.7 0.0
21/06:30pm 30.0 28.6 17.0 45 8.3 SSE 20 30 11 16 1007.6 1004.0 0.0
21/06:00pm 29.8 27.5 17.7 48 7.8 SSW 26 44 14 24 1007.6 1004.0 0.0
21/05:59pm 30.2 28.2 17.5 46 8.2 SSW 24 44 13 24 1007.5 1003.9 0.0
21/05:37pm 35.2 30.9 12.1 24 14.0 SW 26 44 14 24 1006.7 1003.1 0.0
21/05:30pm 37.3 34.6 13.0 23 15.1 WNW 19 26 10 14 1006.2 1002.6 0.0
21/05:00pm 38.6 36.9 14.8 24 15.2 NW 17 32 9 17 1005.2 1001.6 0.0
21/04:30pm 38.8 36.6 14.5 23 15.5 NW 19 32 10 17 1005.3 1001.7 0.0
21/04:00pm 38.7 36.5 14.5 24 15.4 N 19 30 10 16 1005.2 1001.6 0.0
21/03:30pm 39.1 35.9 14.3 23 15.8 NNW 24 35 13 19 1005.7 1002.1 0.0
21/03:00pm 38.8 37.5 13.8 22 15.8 N 13 20 7 11 1006.6 1003.0 0.0
21/02:30pm 39.0 37.0 13.9 22 15.9 WNW 17 24 9 13 1007.1 1003.5 0.0
21/02:00pm 39.2 37.1 13.6 22 16.1 NW 17 30 9 16 1007.5 1003.9 0.0
21/01:30pm 38.0 37.4 13.4 23 15.4 W 9 20 5 11 1007.9 1004.3 0.0
21/01:00pm 38.2 37.1 14.4 24 15.1 WSW 13 33 7 18 1008.3 1004.8 0.0
21/12:30pm 37.8 36.4 13.5 23 15.2 NW 13 28 7 15 1008.8 1005.2 0.0
21/12:00pm 37.2 34.9 14.0 25 14.6 NW 19 32 10 17 1009.2 1005.6 0.0
21/11:30am 36.6 34.4 14.8 27 13.8 NNW 20 30 11 16 1009.6 1006.0 0.0
21/11:00am 35.4 33.6 14.4 28 13.2 NW 17 30 9 16 1010.0 1006.4 0.0
21/10:30am 34.9 33.5 14.4 29 12.9 NW 15 28 8 15 1010.3 1006.8 0.0
21/10:00am 34.3 32.7 15.0 31 12.2 NNW 17 28 9 15 1010.6 1007.1 0.0
21/09:30am 32.8 30.3 16.1 36 10.7 NNW 24 33 13 18 1010.6 1007.1 0.0
21/09:00am 31.7 29.8 16.6 40 9.7 N 22 30 12 16 1010.7 1007.2 -
21/08:30am 30.6 29.8 17.2 44 8.6 N 17 24 9 13 1010.7 1007.2 -
21/08:00am 29.2 28.4 17.1 48 7.8 N 17 22 9 12 1010.9 1007.3 -
21/07:30am 28.3 26.6 17.2 51 7.1 N 22 30 12 16 1010.9 1007.3 -
21/07:00am 27.7 27.2 17.9 55 6.3 N 17 26 9 14 1010.6 1007.1 -
21/06:30am 26.7 27.1 19.8 66 4.6 N 17 22 9 12 1010.4 1006.9 -
21/06:00am 25.6 28.4 21.6 78 2.7 N 9 17 5 9 1010.3 1006.8 -
21/05:30am 24.7 27.7 20.0 75 3.1 SSW 4 6 2 3 1010.3 1006.8 -
21/05:00am 25.4 28.1 20.7 75 3.1 NW 7 9 4 5 1009.4 1005.8 -
21/04:30am 25.5 27.7 21.9 80 2.4 N 13 17 7 9 1009.1 1005.5 -
21/04:00am 25.7 27.7 21.6 78 2.8 N 13 17 7 9 1008.9 1005.3 -
21/03:30am 25.6 29.1 22.2 81 2.3 N 7 9 4 5 1009.2 1005.6 -
21/03:00am 25.7 29.3 22.0 80 2.5 NW 6 7 3 4 1009.6 1006.0 0.6
21/02:30am 25.6 28.0 22.3 82 2.2 NNW 13 19 7 10 1009.4 1005.8 -
21/02:00am 25.5 28.0 22.5 83 2.1 NNW 13 19 7 10 1009.5 1005.9 -
21/01:30am 25.5 26.8 22.7 84 1.9 N 20 28 11 15 1009.6 1006.0 -
21/01:00am 25.7 27.1 22.5 82 2.2 N 19 24 10 13 1010.2 1006.7 -
21/12:30am 25.5 27.5 22.3 82 2.2 NNW 15 22 8 12 1010.9 1007.3 -
21/12:00am 25.7 27.8 21.7 78 2.7 N 13 17 7 9 1011.3 1007.7 -
 
Date/Time
WST
Temp
°C
App
Temp
°C
Dew
Point
Rel
Hum
%
Delta-T
°C
Wind Press
QNH
hPa
Press
MSL
hPa
Rain
since 9 am
mm
Dir
 
Spd
km/h
Gust
km/h
Spd
kts
Gust
kts
20/11:30pm 25.8 27.7 21.3 76 3.0 NNE 13 17 7 9 1011.6 1008.0 -
20/11:00pm 25.6 26.4 21.4 77 2.8 NNE 19 22 10 12 1011.7 1008.1 -
20/10:30pm 25.1 25.6 21.9 82 2.2 NNE 22 30 12 16 1012.0 1008.4 -
20/10:00pm 24.7 25.0 22.2 86 1.7 NNE 24 35 13 19 1012.4 1008.9 -
20/09:30pm 25.2 25.7 21.9 82 2.2 ENE 22 30 12 16 1012.2 1008.6 -
20/09:00pm 24.2 24.1 21.5 85 1.8 ESE 24 35 13 19 1011.4 1007.8 -
20/08:33pm 24.6 24.6 21.6 83 2.0 WSW 24 46 13 25 1011.6 1008.0 -
20/08:30pm 25.1 25.8 21.5 80 2.4 WSW 20 46 11 25 1011.5 1007.9 -
20/08:27pm 29.6 30.8 21.4 61 5.6 ENE 17 43 9 23 1010.9 1007.3 -
20/08:24pm 32.8 33.1 18.8 43 9.3 ENE 15 24 8 13 1010.1 1006.5 -
20/08:00pm 34.4 33.5 17.8 37 10.9 NE 19 32 10 17 1008.6 1005.0 -
20/07:30pm 37.7 35.7 13.8 24 15.0 NW 17 22 9 12 1006.8 1003.2 -
20/07:00pm 37.8 36.1 13.6 23 15.2 NW 15 19 8 10 1006.6 1003.0 -
20/06:30pm 38.5 36.4 13.5 22 15.7 NW 17 22 9 12 1006.3 1002.7 -
20/06:00pm 38.8 35.9 12.9 21 16.2 NNW 20 28 11 15 1005.9 1002.3 -
20/05:30pm 39.6 35.7 13.4 21 16.5 NW 26 32 14 17 1005.9 1002.3 -
20/05:00pm 39.9 36.6 14.1 21 16.4 NW 24 39 13 21 1005.7 1002.1 -
20/04:30pm 39.7 36.4 13.9 21 16.3 NW 24 37 13 20 1005.9 1002.3 -
20/04:00pm 40.4 37.8 13.7 20 16.9 WNW 20 32 11 17 1006.2 1002.6 -
20/03:30pm 39.9 38.1 13.2 20 16.8 N 15 32 8 17 1006.5 1002.9 -
20/01:30pm 39.6 37.3 12.9 20 16.7 NW 17 33 9 18 1008.5 1004.9 0.0
20/01:00pm 39.2 37.7 13.0 21 16.4 W 13 26 7 14 1008.9 1005.3 0.0
20/12:30pm 39.2 37.1 12.5 20 16.6 NW 15 30 8 16 1009.5 1005.9 0.0
20/12:00pm 39.7 37.6 12.4 19 17.0 NW 15 28 8 15 1009.9 1006.3 0.0
20/11:30am 39.0 36.7 11.9 20 16.7 NNW 15 30 8 16 1010.3 1006.8 0.0
20/11:00am 38.1 36.1 11.6 20 16.2 WNW 13 26 7 14 1011.0 1007.4 0.0
20/10:30am 36.7 34.6 11.1 21 15.4 NW 13 26 7 14 1011.5 1007.9 0.0
20/10:00am 36.1 34.2 11.7 23 14.8 NNW 13 30 7 16 1011.9 1008.3 0.0
20/09:30am 35.3 33.8 11.8 24 14.2 W 11 22 6 12 1012.5 1009.0 0.0
20/09:00am 34.5 33.4 11.9 25 13.7 NNW 9 17 5 9 1012.8 1009.3 0.0
20/08:30am 33.7 33.9 12.0 26 13.1 ENE 2 7 1 4 1013.0 1009.5 0.0
20/08:00am 32.2 31.8 12.3 29 12.0 NE 6 9 3 5 1013.0 1009.5 0.0
20/07:30am 30.9 31.0 12.8 33 10.9 W 4 7 2 4 1013.0 1009.5 0.0
20/07:00am 29.7 28.3 13.5 37 9.9 NNE 13 17 7 9 1012.8 1009.3 0.0
20/06:30am 28.7 27.7 14.7 42 8.6 N 13 17 7 9 1012.4 1008.9 0.0
20/06:00am 28.2 27.6 14.6 43 8.4 NNE 11 15 6 8 1012.0 1008.4 0.0
20/05:30am 28.2 27.8 14.1 42 8.6 N 9 11 5 6 1011.8 1008.2 0.0
20/05:00am 28.8 27.7 13.2 38 9.4 N 11 17 6 9 1011.6 1008.0 0.0
20/04:30am 29.1 27.2 12.9 37 9.7 WNW 15 24 8 13 1011.3 1007.7 0.0
20/04:00am 28.4 24.6 14.6 43 8.5 WNW 28 35 15 19 1010.7 1007.2 0.0
20/03:30am 29.4 26.3 13.5 37 9.7 WNW 22 30 12 16 1010.7 1007.2 0.0
20/03:00am 29.4 26.6 13.3 37 9.8 WNW 20 26 11 14 1011.2 1007.6 0.0
20/02:30am 29.3 28.2 14.2 39 9.3 NNW 13 17 7 9 1011.2 1007.6 0.0
20/02:00am 29.4 28.7 14.4 40 9.2 NNW 11 15 6 8 1011.4 1007.8 0.0
20/01:30am 30.2 28.7 13.2 35 10.3 W 13 22 7 12 1011.9 1008.3 0.0
20/01:00am 28.4 28.9 16.5 48 7.5 N 9 15 5 8 1011.9 1008.3 0.0
20/12:30am 29.5 27.8 15.7 43 8.7 NW 19 26 10 14 1012.1 1008.5 0.0
20/12:00am 30.9 28.7 14.4 36 10.2 WNW 19 26 10 14 1012.7 1009.2 0.0
 
Date/Time
WST
Temp
°C
App
Temp
°C
Dew
Point
Rel
Hum
%
Delta-T
°C
Wind Press
QNH
hPa
Press
MSL
hPa
Rain
since 9 am
mm
Dir
 
Spd
km/h
Gust
km/h
Spd
kts
Gust
kts
19/11:30pm 31.2 28.3 14.1 35 10.5 WNW 22 32 12 17 1012.9 1009.4 0.0
19/11:00pm 32.0 28.7 12.7 30 11.7 WNW 22 35 12 19 1013.1 1009.6 0.0
19/10:30pm 32.6 27.5 11.9 28 12.4 NW 30 39 16 21 1012.7 1009.2 0.0
19/10:00pm 33.0 27.8 11.5 27 12.8 NW 30 44 16 24 1012.2 1008.6 0.0
19/09:30pm 33.7 28.0 11.0 25 13.5 NNW 32 46 17 25 1012.0 1008.4 0.0
19/09:00pm 34.7 28.7 10.7 23 14.3 NW 33 43 18 23 1011.4 1007.8 0.0
19/08:30pm 35.3 29.5 12.7 25 13.9 NW 35 44 19 24 1011.0 1007.4 0.0
19/08:00pm 36.4 33.4 12.5 23 14.7 NW 20 30 11 16 1010.6 1007.1 0.0

Other Formats:

Comma delimited format used in spreadsheet applications
http://www.bom.gov.au/fwo/IDW60801/IDW60801.99737.axf

JavaScript Object Notation format (JSON) in row-major order
http://www.bom.gov.au/fwo/IDW60801/IDW60801.99737.json